Time;durP1;ratioP1;P1;durP2;ratioP2;P2;SDS_P1;SDS_P2;PMS_P1;PMS_P2;Temp;Humidity;BMP_temperature;BMP_pressure;BME280_temperature;BME280_humidity;BME280_pressure;Samples;Min_cycle;Max_cycle;Signal;HPM_P1;HPM_P2
2021/08/06 13:16:53;;;;;;;2.45;1.02;;;;;;;21.71;63.40;100051.84;2091557;27;1217988;-74
2021/08/06 13:17:53;;;;;;;3.83;1.37;;;;;;;21.44;64.11;100062.47;2121791;28;20035;-75
2021/08/06 13:18:53;;;;;;;3.75;1.88;;;;;;;21.34;64.96;100059.06;2112827;28;20028;-74
2021/08/06 13:19:54;;;;;;;3.13;1.83;;;;;;;21.25;64.79;100058.22;2110791;28;20039;-79
2021/08/06 13:20:54;;;;;;;5.03;1.33;;;;;;;21.30;65.21;100061.22;2097544;28;20029;-77
2021/08/06 13:22:29;;;;;;;3.28;1.85;;;;;;;21.45;64.54;100060.66;2102978;28;20146;-84
2021/08/06 13:23:38;;;;;;;2.08;1.50;;;;;;;21.59;64.12;100052.09;2109992;28;20478;-80
2021/08/06 13:24:38;;;;;;;3.38;1.55;;;;;;;21.59;63.87;100060.06;2109233;28;20024;-72
2021/08/06 13:25:40;;;;;;;3.63;1.70;;;;;;;21.55;64.11;100056.06;2114127;28;20023;-73
2021/08/06 13:26:40;;;;;;;2.45;1.70;;;;;;;21.52;64.06;100052.91;2113911;28;20065;-73
2021/08/06 13:27:40;;;;;;;4.30;1.60;;;;;;;21.46;63.87;100049.06;2113505;28;20053;-73
2021/08/06 13:28:41;;;;;;;5.17;1.43;;;;;;;21.48;63.94;100057.69;2104763;28;20421;-72
2021/08/06 13:29:42;;;;;;;;;;;;;;;21.46;63.88;100049.06;2105410;28;20766;-73
2021/08/06 13:30:43;;;;;;;2.57;1.50;;;;;;;21.39;64.00;100054.16;2096443;28;19912;-72
2021/08/06 13:31:43;;;;;;;5.95;1.35;;;;;;;21.45;63.67;100052.69;2105267;28;20020;-72
2021/08/06 13:32:43;;;;;;;2.77;1.17;;;;;;;21.39;64.01;100064.78;2096621;28;20372;-73
2021/08/06 13:33:43;;;;;;;4.23;1.60;;;;;;;21.44;63.74;100072.25;2096340;28;20033;-73
2021/08/06 13:34:44;;;;;;;5.67;1.83;;;;;;;21.46;64.01;100064.97;2110818;28;20032;-74
2021/08/06 13:35:44;;;;;;;3.23;1.40;;;;;;;21.47;63.68;100071.94;2104926;28;20032;-73
2021/08/06 13:36:44;;;;;;;5.07;1.80;;;;;;;21.49;63.36;100080.59;2093612;28;20331;-73
2021/08/06 13:37:45;;;;;;;4.22;1.60;;;;;;;21.47;63.79;100082.56;2104493;28;20450;-71
2021/08/06 13:38:45;;;;;;;3.75;1.73;;;;;;;21.38;63.82;100081.66;2105010;28;20036;-73
2021/08/06 13:39:45;;;;;;;2.87;1.57;;;;;;;21.41;63.99;100088.50;2113163;28;20058;-74
2021/08/06 13:40:46;;;;;;;4.83;1.80;;;;;;;21.39;63.94;100086.00;2113336;28;20027;-72
2021/08/06 13:41:46;;;;;;;3.33;1.50;;;;;;;21.39;63.68;100083.34;2113053;28;20034;-72
2021/08/06 13:42:46;;;;;;;3.87;1.50;;;;;;;21.39;63.63;100101.09;2102588;28;20028;-72
2021/08/06 13:43:46;;;;;;;4.72;1.65;;;;;;;21.40;63.76;100113.34;2113781;28;20020;-72
2021/08/06 13:44:47;;;;;;;3.50;1.73;;;;;;;21.35;63.94;100127.09;2113755;28;20035;-72
2021/08/06 13:45:47;;;;;;;3.43;1.77;;;;;;;21.38;63.67;100133.91;2113031;28;20378;-74
2021/08/06 13:46:47;;;;;;;2.83;1.40;;;;;;;21.36;63.83;100140.19;2113153;28;20462;-77
2021/08/06 13:47:47;;;;;;;6.00;1.87;;;;;;;21.35;64.36;100138.53;2110710;28;20452;-77
2021/08/06 13:48:48;;;;;;;5.77;2.00;;;;;;;21.32;65.33;100133.53;2088952;28;20068;-79
2021/08/06 13:49:48;;;;;;;3.55;1.77;;;;;;;21.68;66.03;100137.09;2079909;28;20041;-78
2021/08/06 13:50:50;;;;;;;4.40;1.50;;;;;;;21.71;63.99;100144.78;2080201;28;20361;-81
2021/08/06 13:51:51;;;;;;;4.22;1.20;;;;;;;21.47;65.05;100139.13;2070343;28;20088;-82
2021/08/06 13:53:54;;;;;;;35.60;34.30;;;;;;;21.27;65.10;100134.97;2066485;27;1326003;-74
2021/08/06 13:54:54;;;;;;;46.00;44.42;;;;;;;21.07;65.76;100141.28;2101829;28;20068;-74
2021/08/06 13:55:54;;;;;;;65.03;62.80;;;;;;;20.99;65.80;100135.06;2088876;28;20029;-76
2021/08/06 13:56:54;;;;;;;33.10;32.07;;;;;;;20.90;66.53;100123.56;2088597;28;20468;-75
2021/08/06 13:57:55;;;;;;;272.70;262.07;;;;;;;20.90;66.43;100123.56;2079939;28;20032;-74
2021/08/06 13:58:55;;;;;;;161.03;154.83;;;;;;;20.80;67.21;100119.09;2080134;28;20057;-73
2021/08/06 13:59:55;;;;;;;172.80;166.57;;;;;;;20.70;67.73;100111.22;2104824;28;20032;-75
2021/08/06 14:00:55;;;;;;;106.93;103.43;;;;;;;20.78;67.55;100115.78;2105345;28;20090;-74
2021/08/06 14:01:55;;;;;;;256.10;245.37;;;;;;;20.70;68.21;100115.69;2096683;28;20025;-74
2021/08/06 14:02:56;;;;;;;217.07;208.33;;;;;;;20.74;67.94;100109.13;2102294;28;20093;-73
2021/08/06 14:03:56;;;;;;;110.00;106.60;;;;;;;20.69;67.95;100117.50;2105967;28;20024;-74
2021/08/06 14:04:56;;;;;;;316.47;304.60;;;;;;;20.77;67.78;100114.09;2096280;28;20100;-74
2021/08/06 14:05:56;;;;;;;155.20;150.37;;;;;;;20.72;68.22;100111.06;2088329;28;20365;-74
2021/08/06 14:06:58;;;;;;;519.73;494.93;;;;;;;20.75;68.47;100110.78;2096005;28;20028;-74
2021/08/06 14:07:58;;;;;;;969.15;898.17;;;;;;;20.73;68.36;100117.22;2096711;28;20464;-74
2021/08/06 14:08:59;;;;;;;475.53;454.13;;;;;;;20.77;68.25;100115.94;2097070;28;20044;-73
2021/08/06 14:09:59;;;;;;;297.85;286.50;;;;;;;20.81;68.29;100115.47;2096682;28;20020;-74
2021/08/06 14:11:00;;;;;;;259.70;252.20;;;;;;;20.85;68.17;100118.66;2096457;28;20029;-74
2021/08/06 14:12:00;;;;;;;530.60;509.35;;;;;;;20.83;68.51;100116.16;2096819;28;20021;-74
2021/08/06 14:13:00;;;;;;;600.87;576.47;;;;;;;20.86;68.16;100114.22;2097480;28;20377;-73
2021/08/06 14:14:00;;;;;;;382.20;371.87;;;;;;;20.89;68.36;100112.09;2097777;28;20044;-75
2021/08/06 14:15:01;;;;;;;494.73;480.33;;;;;;;20.89;67.90;100111.25;2081962;28;20018;-74
2021/08/06 14:16:05;;;;;;;369.30;357.67;;;;;;;20.91;68.34;100109.31;2082402;28;20105;-75
2021/08/06 14:17:05;;;;;;;359.33;346.73;;;;;;;20.89;68.55;100120.06;2099742;28;20472;-75
2021/08/06 14:18:05;;;;;;;347.30;336.07;;;;;;;20.92;68.20;100116.25;2104864;28;20024;-74
2021/08/06 14:19:05;;;;;;;305.17;293.70;;;;;;;20.92;68.37;100113.63;2103365;28;20455;-74
2021/08/06 14:20:08;;;;;;;143.63;139.23;;;;;;;20.93;68.54;100112.63;2101977;28;20020;-74
2021/08/06 14:21:08;;;;;;;393.60;378.38;;;;;;;20.90;68.62;100115.59;2101401;28;20376;-74
2021/08/06 14:22:08;;;;;;;370.30;357.00;;;;;;;20.94;68.58;100111.66;2104994;28;20024;-75
2021/08/06 14:23:08;;;;;;;313.93;305.37;;;;;;;20.99;68.12;100114.69;2093325;28;20025;-75
2021/08/06 14:24:08;;;;;;;483.53;468.00;;;;;;;20.97;68.54;100109.53;2096502;28;20056;-74
2021/08/06 14:25:09;;;;;;;422.83;408.80;;;;;;;20.96;68.78;100107.03;2088053;28;20029;-74
2021/08/06 14:26:09;;;;;;;704.50;669.38;;;;;;;21.00;68.66;100113.69;2104915;28;20106;-74
2021/08/06 14:27:10;;;;;;;623.33;596.83;;;;;;;20.94;68.99;100109.00;2088015;28;20084;-75
2021/08/06 14:28:10;;;;;;;681.43;641.27;;;;;;;21.00;68.56;100113.69;2094092;28;20029;-74
2021/08/06 14:29:10;;;;;;;493.00;472.87;;;;;;;21.03;68.41;100108.09;2104595;28;20028;-76
2021/08/06 14:30:10;;;;;;;646.47;611.03;;;;;;;21.00;68.74;100115.53;2079756;28;20088;-74
2021/08/06 14:31:11;;;;;;;606.10;562.43;;;;;;;21.03;68.12;100118.69;2079863;28;20033;-74
2021/08/06 14:32:12;;;;;;;696.87;655.73;;;;;;;21.04;68.36;100104.44;2096014;28;20086;-74
2021/08/06 14:33:12;;;;;;;524.50;494.58;;;;;;;21.02;68.62;100106.44;2094274;28;20484;-74
2021/08/06 14:34:13;;;;;;;250.63;241.80;;;;;;;21.02;68.23;100109.09;2088086;28;20025;-75
2021/08/06 14:35:13;;;;;;;273.33;263.83;;;;;;;21.05;67.87;100110.59;2088543;28;20025;-76
2021/08/06 14:36:13;;;;;;;259.33;250.20;;;;;;;21.27;70.87;100109.28;2088630;28;20567;-79
2021/08/06 14:37:15;;;;;;;531.70;507.50;;;;;;;21.35;67.18;100109.34;2088966;28;20040;-82
2021/08/06 14:38:15;;;;;;;547.33;521.90;;;;;;;21.39;69.13;100107.22;2085684;28;20369;-75
2021/08/06 14:39:16;;;;;;;646.00;613.10;;;;;;;21.53;68.86;100112.97;2088321;28;20052;-78
2021/08/06 14:40:17;;;;;;;267.77;259.63;;;;;;;21.54;68.03;100104.84;2072129;28;20133;-79
2021/08/06 14:41:17;;;;;;;533.00;508.73;;;;;;;21.41;66.72;100109.72;2080654;28;20183;-78
2021/08/06 14:58:21;;;;;;;41.30;39.25;;;;;;;22.15;62.87;100096.06;2072256;27;1285995;-83
2021/08/06 14:59:21;;;;;;;313.60;296.67;;;;;;;21.89;63.63;100117.38;2088056;28;20037;-83
2021/08/06 15:00:21;;;;;;;253.47;241.20;;;;;;;21.82;63.91;100102.06;2071976;28;20290;-84
2021/08/06 15:01:23;;;;;;;159.07;151.23;;;;;;;21.80;63.88;100104.06;2088282;28;20025;-82
2021/08/06 15:02:24;;;;;;;320.02;303.45;;;;;;;21.67;64.12;100098.28;2093721;28;20285;-87
2021/08/06 15:03:34;;;;;;;158.02;150.93;;;;;;;21.61;64.01;100095.28;2071793;28;20030;-83
2021/08/06 15:04:36;;;;;;;199.88;191.25;;;;;;;21.67;63.65;100098.28;2067559;28;20042;-82
2021/08/06 15:05:38;;;;;;;25.45;24.30;;;;;;;21.59;64.01;100102.53;2080017;28;20147;-84
2021/08/06 15:06:39;;;;;;;86.03;82.43;;;;;;;21.55;63.88;100101.19;2078786;28;20132;-86
2021/08/06 15:07:50;;;;;;;129.80;124.55;;;;;;;21.60;63.87;100104.22;2071349;28;20037;-85
